createdAt,value
2023-05-07T00:00:20.289Z,17.50
2023-05-07T00:02:51.156Z,17.40
2023-05-07T00:05:18.894Z,17.40
2023-05-07T00:07:46.452Z,17.40
2023-05-07T00:10:14.262Z,17.30
2023-05-07T00:12:43.224Z,17.20
2023-05-07T00:15:13.496Z,17.10
2023-05-07T00:17:42.338Z,17.00
2023-05-07T00:20:10.248Z,16.90
2023-05-07T00:22:42.023Z,16.90
2023-05-07T00:25:09.552Z,17.00
2023-05-07T00:27:40.255Z,16.90
2023-05-07T00:30:07.776Z,16.90
2023-05-07T00:32:35.079Z,16.80
2023-05-07T00:35:04.897Z,16.80
2023-05-07T00:37:32.296Z,16.80
2023-05-07T00:40:00.380Z,16.60
2023-05-07T00:42:30.653Z,16.60
2023-05-07T00:44:57.807Z,16.50
2023-05-07T00:47:25.450Z,16.40
2023-05-07T00:49:52.827Z,16.40
2023-05-07T00:52:21.588Z,16.40
2023-05-07T00:54:48.821Z,16.30
2023-05-07T00:57:16.436Z,16.30
2023-05-07T00:59:45.986Z,16.20
2023-05-07T01:02:14.397Z,16.20
2023-05-07T01:04:43.707Z,16.20
2023-05-07T01:07:13.167Z,16.10
2023-05-07T01:09:40.732Z,16.00
2023-05-07T01:12:08.450Z,16.00
2023-05-07T01:14:36.598Z,15.90
2023-05-07T01:17:03.970Z,15.90
2023-05-07T01:19:31.413Z,15.90
2023-05-07T01:22:10.468Z,16.00
2023-05-07T01:24:38.249Z,16.00
2023-05-07T01:27:06.800Z,16.00
2023-05-07T01:29:33.984Z,15.90
2023-05-07T01:32:01.993Z,15.80
2023-05-07T01:34:34.553Z,15.80
2023-05-07T01:37:02.943Z,15.70
2023-05-07T01:39:30.808Z,15.70
2023-05-07T01:41:58.201Z,15.70
2023-05-07T01:44:30.068Z,15.70
2023-05-07T01:46:58.713Z,15.70
2023-05-07T01:49:25.884Z,15.70
2023-05-07T01:51:53.098Z,15.70
2023-05-07T01:54:21.916Z,15.70
2023-05-07T01:56:50.107Z,15.70
2023-05-07T01:59:17.232Z,15.70
2023-05-07T02:01:44.533Z,15.70
2023-05-07T02:04:13.058Z,15.60
2023-05-07T02:06:43.396Z,15.60
2023-05-07T02:09:10.956Z,15.60
2023-05-07T02:11:38.269Z,15.40
2023-05-07T02:14:05.618Z,15.40
2023-05-07T02:16:34.651Z,15.40
2023-05-07T02:19:03.127Z,15.30
2023-05-07T02:21:31.254Z,15.30
2023-05-07T02:23:58.723Z,15.30
2023-05-07T02:26:27.051Z,15.30
2023-05-07T02:28:54.982Z,15.30
2023-05-07T02:31:22.765Z,15.20
2023-05-07T02:33:52.332Z,15.20
2023-05-07T02:36:20.467Z,15.20
2023-05-07T02:38:47.740Z,15.10
2023-05-07T02:41:14.968Z,15.10
2023-05-07T02:43:42.349Z,15.10
2023-05-07T02:46:10.175Z,15.10
2023-05-07T02:48:37.578Z,15.00
2023-05-07T02:51:05.392Z,15.00
2023-05-07T02:53:33.637Z,15.00
2023-05-07T02:56:01.858Z,15.00
2023-05-07T02:58:29.743Z,15.10
2023-05-07T03:00:57.106Z,14.90
2023-05-07T03:03:24.450Z,14.90
2023-05-07T03:05:54.544Z,14.90
2023-05-07T03:08:24.252Z,14.90
2023-05-07T03:10:51.368Z,14.90
2023-05-07T03:13:18.756Z,14.90
2023-05-07T03:15:46.699Z,14.80
2023-05-07T03:18:16.253Z,14.80
2023-05-07T03:20:43.568Z,14.80
2023-05-07T03:23:10.830Z,14.80
2023-05-07T03:25:40.353Z,14.70
2023-05-07T03:28:07.627Z,14.70
2023-05-07T03:30:34.846Z,14.60
2023-05-07T03:33:01.968Z,14.60
2023-05-07T03:35:29.344Z,14.50
2023-05-07T03:37:56.955Z,14.50
2023-05-07T03:40:24.394Z,14.50
2023-05-07T03:42:51.596Z,14.50
2023-05-07T03:45:18.760Z,14.60
2023-05-07T03:47:46.239Z,14.60
2023-05-07T03:50:13.649Z,14.60
2023-05-07T03:52:41.234Z,14.60
2023-05-07T03:55:08.745Z,14.60
2023-05-07T03:57:36.361Z,14.60
2023-05-07T04:00:10.190Z,14.60
2023-05-07T04:02:41.022Z,14.60
2023-05-07T04:05:08.635Z,14.60
2023-05-07T04:07:36.193Z,14.60
2023-05-07T04:10:03.511Z,14.60
2023-05-07T04:12:30.804Z,14.60
2023-05-07T04:14:58.219Z,14.60
2023-05-07T04:17:25.526Z,14.60
2023-05-07T04:19:52.688Z,14.60
2023-05-07T04:22:21.094Z,14.60
2023-05-07T04:24:49.612Z,14.60
2023-05-07T04:27:18.379Z,14.70
2023-05-07T04:29:48.580Z,14.60
2023-05-07T04:32:16.366Z,14.70
2023-05-07T04:34:47.492Z,14.70
2023-05-07T04:37:14.778Z,14.80
2023-05-07T04:39:42.260Z,14.90
2023-05-07T04:42:10.868Z,14.90
2023-05-07T04:44:40.605Z,15.00
2023-05-07T04:47:08.106Z,15.00
2023-05-07T04:49:35.705Z,15.00
2023-05-07T04:52:07.345Z,15.10
2023-05-07T04:54:35.097Z,15.10
2023-05-07T04:57:05.289Z,15.20
2023-05-07T04:59:36.528Z,15.30
2023-05-07T05:02:11.911Z,15.30
2023-05-07T05:04:40.614Z,15.40
2023-05-07T05:07:08.057Z,15.50
2023-05-07T05:09:36.946Z,15.50
2023-05-07T05:12:05.918Z,15.50
2023-05-07T05:14:35.246Z,15.60
2023-05-07T05:17:08.662Z,15.70
2023-05-07T05:19:59.674Z,15.80
2023-05-07T05:22:27.028Z,15.90
2023-05-07T05:24:55.391Z,15.90
2023-05-07T05:27:22.698Z,15.90
2023-05-07T05:29:49.872Z,15.90
2023-05-07T05:32:19.485Z,15.90
2023-05-07T05:34:47.054Z,16.00
2023-05-07T05:37:15.821Z,16.00
2023-05-07T05:39:45.020Z,16.20
2023-05-07T05:42:12.512Z,16.20
2023-05-07T05:44:39.715Z,16.20
2023-05-07T05:47:07.452Z,16.30
2023-05-07T05:49:40.548Z,16.30
2023-05-07T05:52:11.679Z,16.50
2023-05-07T05:54:39.074Z,16.60
2023-05-07T05:57:06.522Z,16.60
2023-05-07T05:59:35.271Z,16.70
2023-05-07T06:02:02.989Z,16.80
2023-05-07T06:04:32.285Z,17.00
2023-05-07T06:06:59.675Z,17.10
2023-05-07T06:09:27.207Z,17.20
2023-05-07T06:11:55.186Z,17.30
2023-05-07T06:14:23.453Z,17.40
2023-05-07T06:16:51.305Z,17.40
2023-05-07T06:27:05.263Z,17.80
2023-05-07T06:29:35.709Z,17.90
2023-05-07T07:18:49.906Z,20.30
2023-05-07T07:40:32.854Z,21.40
2023-05-07T07:43:05.116Z,21.50
2023-05-07T07:59:20.437Z,22.30
2023-05-07T08:01:52.888Z,22.40
2023-05-07T08:04:22.941Z,22.50
2023-05-07T08:06:50.881Z,22.60
2023-05-07T08:09:23.632Z,22.80
2023-05-07T08:11:52.921Z,23.00
2023-05-07T08:47:37.485Z,24.80
2023-05-07T08:50:09.215Z,24.90
2023-05-07T09:00:45.828Z,25.20
2023-05-07T09:03:14.308Z,25.10
2023-05-07T09:05:45.702Z,25.20
2023-05-07T09:08:21.960Z,25.30
2023-05-07T09:10:52.504Z,25.50
2023-05-07T09:21:32.508Z,25.80
2023-05-07T09:34:58.646Z,26.30
2023-05-07T09:42:37.026Z,26.90
2023-05-07T09:48:02.597Z,27.10
2023-05-07T09:50:33.920Z,27.30
2023-05-07T09:53:05.048Z,27.30
2023-05-07T09:55:38.363Z,27.30
2023-05-07T09:58:08.061Z,27.20
2023-05-07T10:00:35.694Z,27.20
2023-05-07T10:03:09.375Z,27.10
2023-05-07T10:05:39.469Z,27.10
2023-05-07T10:10:43.394Z,27.30
2023-05-07T10:22:31.201Z,27.90
2023-05-07T10:25:01.287Z,28.00
2023-05-07T10:27:28.649Z,28.10
2023-05-07T10:30:33.514Z,28.10
2023-05-07T10:33:11.080Z,28.30
2023-05-07T10:35:49.120Z,28.40
2023-05-07T11:22:57.374Z,29.10
2023-05-07T11:29:14.563Z,29.20
2023-05-07T11:31:42.261Z,29.30
2023-05-07T11:34:15.870Z,29.40
2023-05-07T11:36:45.317Z,29.50
2023-05-07T11:39:34.926Z,29.50
2023-05-07T11:42:04.454Z,29.20
2023-05-07T11:44:52.068Z,29.20
2023-05-07T11:47:26.262Z,29.30
2023-05-07T11:49:54.894Z,29.40
2023-05-07T11:52:23.106Z,29.20
2023-05-07T11:54:54.198Z,29.10
2023-05-07T11:57:23.599Z,29.10
2023-05-07T13:48:23.438Z,31.40
2023-05-07T14:04:27.685Z,31.10
2023-05-07T14:07:01.283Z,31.10
2023-05-07T14:12:10.678Z,31.10
2023-05-07T14:14:47.846Z,31.10
2023-05-07T14:44:51.763Z,30.80
2023-05-07T14:47:20.037Z,30.60
2023-05-07T14:49:47.506Z,30.40
2023-05-07T14:52:14.941Z,30.30
2023-05-07T14:54:46.641Z,30.10
2023-05-07T14:57:17.407Z,30.00
2023-05-07T14:59:44.994Z,29.80
2023-05-07T15:02:15.047Z,29.70
2023-05-07T15:04:47.338Z,29.60
2023-05-07T15:07:16.411Z,29.60
2023-05-07T15:09:47.606Z,29.50
2023-05-07T15:12:15.238Z,29.50
2023-05-07T15:14:46.574Z,29.60
2023-05-07T15:17:16.946Z,29.60
2023-05-07T15:19:44.118Z,29.50
2023-05-07T15:22:20.414Z,29.50
2023-05-07T15:33:02.837Z,29.30
2023-05-07T15:35:34.748Z,29.30
2023-05-07T15:38:04.898Z,29.10
2023-05-07T15:40:39.728Z,29.00
2023-05-07T15:45:33.135Z,28.80
2023-05-07T15:57:37.400Z,28.50
2023-05-07T16:00:09.474Z,28.50
2023-05-07T16:02:38.836Z,28.40
2023-05-07T16:33:45.684Z,27.80
2023-05-07T16:38:49.845Z,27.70
2023-05-07T16:41:17.394Z,27.60
2023-05-07T16:43:44.980Z,27.50
2023-05-07T16:46:13.732Z,27.40
2023-05-07T16:48:42.461Z,27.40
2023-05-07T16:51:27.739Z,27.30
2023-05-07T16:53:55.328Z,27.30
2023-05-07T16:56:25.297Z,27.20
2023-05-07T16:58:57.220Z,27.20
2023-05-07T17:01:28.857Z,27.20
2023-05-07T17:04:11.099Z,27.10
2023-05-07T17:06:43.664Z,27.10
2023-05-07T17:09:11.497Z,27.00
2023-05-07T17:11:39.159Z,27.00
2023-05-07T17:25:28.629Z,26.60
2023-05-07T17:28:01.389Z,26.40
2023-05-07T17:30:29.895Z,26.20
2023-05-07T17:33:09.314Z,26.10
2023-05-07T17:35:40.923Z,26.00
2023-05-07T18:08:21.382Z,25.10
2023-05-07T18:10:48.810Z,25.10
2023-05-07T18:13:19.230Z,25.10
2023-05-07T18:15:54.381Z,25.10
2023-05-07T18:18:29.641Z,25.10
2023-05-07T18:20:59.480Z,25.00
2023-05-07T18:23:38.098Z,24.70
2023-05-07T18:34:14.153Z,24.70
2023-05-07T18:36:41.770Z,24.70
2023-05-07T19:01:04.188Z,24.20
2023-05-07T19:03:32.236Z,24.10
2023-05-07T19:06:08.500Z,24.00
2023-05-07T19:50:16.041Z,23.30
2023-05-07T19:52:44.095Z,23.20
2023-05-07T19:55:14.000Z,23.20
2023-05-07T19:57:42.565Z,23.10
2023-05-07T20:00:13.647Z,23.20
2023-05-07T20:02:41.342Z,23.10
2023-05-07T20:05:11.359Z,23.10
2023-05-07T20:07:40.913Z,23.00
2023-05-07T20:10:09.061Z,23.00
2023-05-07T20:12:39.724Z,23.00
2023-05-07T20:15:07.954Z,23.00
2023-05-07T20:17:35.142Z,23.00
2023-05-07T20:20:02.549Z,22.90
2023-05-07T20:22:35.812Z,22.90
2023-05-07T20:25:05.933Z,22.90
2023-05-07T20:27:34.829Z,23.00
2023-05-07T20:30:02.458Z,23.00
2023-05-07T20:32:29.737Z,22.90
2023-05-07T20:34:59.329Z,22.90
2023-05-07T20:37:27.099Z,22.80
2023-05-07T20:39:54.161Z,22.80
2023-05-07T20:42:21.323Z,22.80
2023-05-07T20:44:48.802Z,22.80
2023-05-07T20:47:15.986Z,22.70
2023-05-07T20:49:43.226Z,22.70
2023-05-07T20:52:10.446Z,22.70
2023-05-07T20:54:40.574Z,22.60
2023-05-07T20:57:07.794Z,22.50
2023-05-07T20:59:35.172Z,22.40
2023-05-07T21:02:03.042Z,22.40
2023-05-07T21:04:31.112Z,22.40
2023-05-07T21:06:58.233Z,22.40
2023-05-07T21:09:25.482Z,22.40
2023-05-07T21:11:53.140Z,22.40
2023-05-07T21:14:21.256Z,22.40
2023-05-07T21:16:48.376Z,22.30
2023-05-07T21:19:16.017Z,22.20
2023-05-07T21:21:43.236Z,22.20
2023-05-07T21:24:10.330Z,22.20
2023-05-07T21:26:39.182Z,22.30
2023-05-07T21:29:06.359Z,22.30
2023-05-07T21:31:33.811Z,22.20
2023-05-07T21:34:01.093Z,22.20
2023-05-07T21:36:29.117Z,22.20
2023-05-07T21:38:56.405Z,22.20
2023-05-07T21:41:26.339Z,22.20
2023-05-07T21:43:55.066Z,22.20
2023-05-07T21:46:24.570Z,22.10
2023-05-07T21:48:51.772Z,22.10
2023-05-07T21:51:18.830Z,22.10
2023-05-07T21:53:46.208Z,22.10
2023-05-07T21:56:13.246Z,22.20
2023-05-07T21:58:40.832Z,22.20
2023-05-07T22:01:16.697Z,22.20
2023-05-07T22:03:43.914Z,22.10
2023-05-07T22:06:11.271Z,22.10
2023-05-07T22:08:38.564Z,22.10
2023-05-07T22:11:05.967Z,22.10
2023-05-07T22:13:33.345Z,22.10
2023-05-07T22:16:03.649Z,22.00
2023-05-07T22:18:30.814Z,22.00
2023-05-07T22:20:58.165Z,21.90
2023-05-07T22:23:25.288Z,21.80
2023-05-07T22:25:52.864Z,21.80
2023-05-07T22:28:20.196Z,21.80
2023-05-07T22:30:47.456Z,21.80
2023-05-07T22:33:14.819Z,21.70
2023-05-07T22:35:42.041Z,21.70
2023-05-07T22:38:09.121Z,21.60
2023-05-07T22:40:36.252Z,21.50
2023-05-07T22:43:03.335Z,21.40
2023-05-07T22:45:30.406Z,21.40
2023-05-07T22:47:57.495Z,21.40
2023-05-07T22:50:26.147Z,21.20
2023-05-07T22:52:53.135Z,21.00
2023-05-07T22:55:20.273Z,21.10
2023-05-07T22:57:47.640Z,21.10
2023-05-07T23:00:15.457Z,21.10
2023-05-07T23:02:43.048Z,21.10
2023-05-07T23:05:11.280Z,21.10
2023-05-07T23:07:39.685Z,21.00
2023-05-07T23:10:07.336Z,20.90
2023-05-07T23:12:34.525Z,20.90
2023-05-07T23:15:01.677Z,21.00
2023-05-07T23:17:28.731Z,21.00
2023-05-07T23:19:56.117Z,20.90
2023-05-07T23:22:23.258Z,20.80
2023-05-07T23:24:50.448Z,20.80
2023-05-07T23:27:17.829Z,20.80
2023-05-07T23:29:46.457Z,20.70
2023-05-07T23:32:13.484Z,20.70
2023-05-07T23:34:41.224Z,20.70
2023-05-07T23:37:11.239Z,20.60
2023-05-07T23:39:38.364Z,20.60
2023-05-07T23:42:05.520Z,20.50
2023-05-07T23:44:32.647Z,20.50
2023-05-07T23:46:59.716Z,20.50
2023-05-07T23:49:26.712Z,20.40
2023-05-07T23:51:53.906Z,20.30
2023-05-07T23:54:20.892Z,20.10
2023-05-07T23:56:48.473Z,20.10
2023-05-07T23:59:15.553Z,20.10
